Terminal Aerodrome Forecast
Issued by NWS

Home | Current Version | Previous Version | Text Only | Print | Product List | Glossary On
Versions: 1 2 3 4 5 6 7 8 9 10 11 12 13 14 15 16 17 18 19 20 21 22 23 24 25 26 27 28 29 30 31 32 33 34 35 36 37 38 39 40
645
FTUS46 KOTX 032116 AAA
TAFPUW
TAF AMD
KPUW 032116Z 0321/0418 25015G20KT P6SM BKN035 BKN050 BKN150
     FM040100 23012G16KT P6SM SCT030 BKN120
     FM040400 23012G18KT P6SM VCSH BKN030 OVC060
     FM040700 23014G24KT P6SM -RASN BKN030 OVC050
     FM041600 24014G20KT P6SM -RASN BKN025 OVC040=

USA.gov is the U.S. government's official web portal to all federal, state and local government web resources and services.